KPVB

Details ICAO KPVB
Name Platteville Muni
Region United States
Timezone America/Chicago (UTC-6.0)
Plans Departing 4
Arriving 3
Stats Elevation 1,024 ft / 312 m (AMSL)
Location 42.689269° -90.444421°
Runways 2
Magnetic Variation 1.809° W
Sunrise 2017-12-17 13:27:59 UTC / 2017-12-17 07:27:59 Local
Sunset 2017-12-17 22:30:47 UTC / 2017-12-17 16:30:47 Local
Advertisement - Login to hide

Runways

ID Width Length Bearing (true) Bearing (mag) Surface Threshold Offset Overrun Length
07 75 ft / 23 m 3,594 ft / 1,095 m 68.07° 69.88° Asphalt 0 ft / 0 m 0 ft / 0 m
15 75 ft / 23 m 4,000 ft / 1,219 m 144.91° 146.72° Asphalt 0 ft / 0 m 0 ft / 0 m
25 75 ft / 23 m 3,594 ft / 1,095 m 248.07° 249.88° Asphalt 0 ft / 0 m 0 ft / 0 m
33 75 ft / 23 m 4,000 ft / 1,219 m 324.92° 326.73° Asphalt 0 ft / 0 m 0 ft / 0 m

Map

Weather


0- 5 10 15 20 25 30 35+ Temperature / ° C

Clouds and Precipitation
Forecast for 2017-12-18 06:00 UTC. Updated 34 minutes ago

Ground ~20,000 ft ~40,000 ft Winds

METAR

KPVB 180135Z AUTO 00000KT 5SM OVC027 01/01 A2998 RMK AO1 T00100005

TAF

Not found

Frequencies

Unicom 122.70 MHz CTAF/UNICOM
Warning: Do not use this data for real-world aviation or navigation. No guarantee of current accuracy is given.